sensor_id;sensor_type;location;lat;lon;timestamp;temperature;humidity
37910;DHT22;23741;49.446;8.754;2024-02-28T00:00:59;10.80;63.30
37910;DHT22;23741;49.446;8.754;2024-02-28T00:03:02;10.80;63.40
37910;DHT22;23741;49.446;8.754;2024-02-28T00:05:03;10.80;63.50
37910;DHT22;23741;49.446;8.754;2024-02-28T00:07:05;10.70;63.30
37910;DHT22;23741;49.446;8.754;2024-02-28T00:09:07;10.70;63.40
37910;DHT22;23741;49.446;8.754;2024-02-28T00:11:09;10.70;63.70
37910;DHT22;23741;49.446;8.754;2024-02-28T00:13:11;10.70;63.90
37910;DHT22;23741;49.446;8.754;2024-02-28T00:15:12;10.70;63.80
37910;DHT22;23741;49.446;8.754;2024-02-28T00:17:14;10.60;63.80
37910;DHT22;23741;49.446;8.754;2024-02-28T00:19:16;10.60;63.90
37910;DHT22;23741;49.446;8.754;2024-02-28T00:21:19;10.50;64.00
37910;DHT22;23741;49.446;8.754;2024-02-28T00:23:21;10.60;64.00
37910;DHT22;23741;49.446;8.754;2024-02-28T00:25:23;10.60;64.10
37910;DHT22;23741;49.446;8.754;2024-02-28T00:27:25;10.60;64.20
37910;DHT22;23741;49.446;8.754;2024-02-28T00:29:27;10.60;64.20
37910;DHT22;23741;49.446;8.754;2024-02-28T00:31:31;10.60;64.10
37910;DHT22;23741;49.446;8.754;2024-02-28T00:33:33;10.60;64.20
37910;DHT22;23741;49.446;8.754;2024-02-28T00:35:35;10.50;64.10
37910;DHT22;23741;49.446;8.754;2024-02-28T00:37:39;10.50;63.90
37910;DHT22;23741;49.446;8.754;2024-02-28T00:39:42;10.60;63.90
37910;DHT22;23741;49.446;8.754;2024-02-28T00:41:44;10.50;64.20
37910;DHT22;23741;49.446;8.754;2024-02-28T00:43:46;10.50;64.50
37910;DHT22;23741;49.446;8.754;2024-02-28T00:45:48;10.50;64.50
37910;DHT22;23741;49.446;8.754;2024-02-28T00:47:52;10.40;64.50
37910;DHT22;23741;49.446;8.754;2024-02-28T00:49:56;10.40;64.50
37910;DHT22;23741;49.446;8.754;2024-02-28T00:51:58;10.40;64.30
37910;DHT22;23741;49.446;8.754;2024-02-28T00:54:00;10.40;64.30
37910;DHT22;23741;49.446;8.754;2024-02-28T00:56:02;10.40;64.50
37910;DHT22;23741;49.446;8.754;2024-02-28T00:58:04;10.40;64.40
37910;DHT22;23741;49.446;8.754;2024-02-28T01:00:06;10.40;64.70
37910;DHT22;23741;49.446;8.754;2024-02-28T01:02:10;10.20;65.40
37910;DHT22;23741;49.446;8.754;2024-02-28T01:04:12;10.30;64.50
37910;DHT22;23741;49.446;8.754;2024-02-28T01:06:14;10.30;64.70
37910;DHT22;23741;49.446;8.754;2024-02-28T01:08:17;10.30;64.70
37910;DHT22;23741;49.446;8.754;2024-02-28T01:10:19;10.30;64.50
37910;DHT22;23741;49.446;8.754;2024-02-28T01:12:21;10.40;64.70
37910;DHT22;23741;49.446;8.754;2024-02-28T01:14:22;10.20;64.50
37910;DHT22;23741;49.446;8.754;2024-02-28T01:26:18;10.10;64.10
37910;DHT22;23741;49.446;8.754;2024-02-28T01:28:23;10.10;64.50
37910;DHT22;23741;49.446;8.754;2024-02-28T01:30:24;10.10;64.90
37910;DHT22;23741;49.446;8.754;2024-02-28T01:32:29;10.00;64.60
37910;DHT22;23741;49.446;8.754;2024-02-28T01:34:31;10.00;64.30
37910;DHT22;23741;49.446;8.754;2024-02-28T01:36:32;10.10;64.80
37910;DHT22;23741;49.446;8.754;2024-02-28T01:38:34;10.00;65.00
37910;DHT22;23741;49.446;8.754;2024-02-28T01:40:36;10.00;65.20
37910;DHT22;23741;49.446;8.754;2024-02-28T01:42:38;10.00;64.70
37910;DHT22;23741;49.446;8.754;2024-02-28T01:44:41;10.00;64.90
37910;DHT22;23741;49.446;8.754;2024-02-28T01:46:44;10.00;65.10
37910;DHT22;23741;49.446;8.754;2024-02-28T01:48:47;10.00;65.30
37910;DHT22;23741;49.446;8.754;2024-02-28T01:50:48;9.90;65.30
37910;DHT22;23741;49.446;8.754;2024-02-28T01:52:50;9.90;65.00
37910;DHT22;23741;49.446;8.754;2024-02-28T01:54:52;9.90;64.70
37910;DHT22;23741;49.446;8.754;2024-02-28T01:56:54;9.90;64.50
37910;DHT22;23741;49.446;8.754;2024-02-28T01:58:56;9.90;64.50
37910;DHT22;23741;49.446;8.754;2024-02-28T02:00:58;9.90;64.70
37910;DHT22;23741;49.446;8.754;2024-02-28T02:03:00;9.90;64.70
37910;DHT22;23741;49.446;8.754;2024-02-28T02:05:02;9.90;65.10
37910;DHT22;23741;49.446;8.754;2024-02-28T02:07:05;9.90;64.90
37910;DHT22;23741;49.446;8.754;2024-02-28T02:09:08;9.90;64.80
37910;DHT22;23741;49.446;8.754;2024-02-28T02:11:10;9.80;64.80
37910;DHT22;23741;49.446;8.754;2024-02-28T02:13:11;9.80;64.60
37910;DHT22;23741;49.446;8.754;2024-02-28T02:15:13;10.00;64.80
37910;DHT22;23741;49.446;8.754;2024-02-28T02:17:15;9.80;65.20
37910;DHT22;23741;49.446;8.754;2024-02-28T02:19:17;9.80;65.20
37910;DHT22;23741;49.446;8.754;2024-02-28T02:21:19;9.80;65.20
37910;DHT22;23741;49.446;8.754;2024-02-28T02:23:21;9.80;65.20
37910;DHT22;23741;49.446;8.754;2024-02-28T02:25:23;9.80;65.50
37910;DHT22;23741;49.446;8.754;2024-02-28T02:27:25;10.00;65.20
37910;DHT22;23741;49.446;8.754;2024-02-28T02:29:30;9.80;65.00
37910;DHT22;23741;49.446;8.754;2024-02-28T02:31:32;9.80;64.90
37910;DHT22;23741;49.446;8.754;2024-02-28T02:33:34;9.80;65.40
37910;DHT22;23741;49.446;8.754;2024-02-28T02:35:36;9.80;65.50
37910;DHT22;23741;49.446;8.754;2024-02-28T02:37:37;9.80;65.50
37910;DHT22;23741;49.446;8.754;2024-02-28T02:39:39;9.80;65.50
37910;DHT22;23741;49.446;8.754;2024-02-28T02:41:41;9.80;65.40
37910;DHT22;23741;49.446;8.754;2024-02-28T02:43:43;9.80;65.40
37910;DHT22;23741;49.446;8.754;2024-02-28T02:45:45;9.80;65.40
37910;DHT22;23741;49.446;8.754;2024-02-28T02:47:47;9.80;65.80
37910;DHT22;23741;49.446;8.754;2024-02-28T02:49:48;9.80;65.90
37910;DHT22;23741;49.446;8.754;2024-02-28T02:51:50;9.80;65.70
37910;DHT22;23741;49.446;8.754;2024-02-28T02:53:52;9.80;66.00
37910;DHT22;23741;49.446;8.754;2024-02-28T02:55:55;9.80;66.10
37910;DHT22;23741;49.446;8.754;2024-02-28T02:57:57;9.80;66.00
37910;DHT22;23741;49.446;8.754;2024-02-28T02:59:58;9.80;66.00
37910;DHT22;23741;49.446;8.754;2024-02-28T03:02:00;9.80;65.90
37910;DHT22;23741;49.446;8.754;2024-02-28T03:04:02;9.80;65.70
37910;DHT22;23741;49.446;8.754;2024-02-28T03:06:04;9.80;65.80
37910;DHT22;23741;49.446;8.754;2024-02-28T03:08:06;9.80;65.90
37910;DHT22;23741;49.446;8.754;2024-02-28T03:10:08;9.80;66.00
37910;DHT22;23741;49.446;8.754;2024-02-28T03:12:11;9.80;66.00
37910;DHT22;23741;49.446;8.754;2024-02-28T03:14:13;9.80;66.10
37910;DHT22;23741;49.446;8.754;2024-02-28T03:16:15;9.80;66.10
37910;DHT22;23741;49.446;8.754;2024-02-28T03:18:17;9.80;66.10
37910;DHT22;23741;49.446;8.754;2024-02-28T03:20:19;9.80;66.20
37910;DHT22;23741;49.446;8.754;2024-02-28T03:22:20;9.70;66.10
37910;DHT22;23741;49.446;8.754;2024-02-28T03:24:22;9.90;66.30
37910;DHT22;23741;49.446;8.754;2024-02-28T03:26:24;9.80;65.80
37910;DHT22;23741;49.446;8.754;2024-02-28T03:28:26;9.80;65.70
37910;DHT22;23741;49.446;8.754;2024-02-28T03:30:27;9.80;65.40
37910;DHT22;23741;49.446;8.754;2024-02-28T03:32:29;9.80;65.30
37910;DHT22;23741;49.446;8.754;2024-02-28T03:34:31;9.80;65.20
37910;DHT22;23741;49.446;8.754;2024-02-28T03:36:33;9.80;66.30
37910;DHT22;23741;49.446;8.754;2024-02-28T03:38:35;9.80;65.40
37910;DHT22;23741;49.446;8.754;2024-02-28T03:40:36;9.70;65.10
37910;DHT22;23741;49.446;8.754;2024-02-28T03:42:38;9.70;65.30
37910;DHT22;23741;49.446;8.754;2024-02-28T03:44:41;9.70;65.40
37910;DHT22;23741;49.446;8.754;2024-02-28T03:46:42;9.70;65.30
37910;DHT22;23741;49.446;8.754;2024-02-28T03:48:44;9.70;65.10
37910;DHT22;23741;49.446;8.754;2024-02-28T03:50:46;9.70;65.00
37910;DHT22;23741;49.446;8.754;2024-02-28T03:52:48;9.70;65.10
37910;DHT22;23741;49.446;8.754;2024-02-28T03:54:50;9.60;64.90
37910;DHT22;23741;49.446;8.754;2024-02-28T03:56:52;9.60;65.20
37910;DHT22;23741;49.446;8.754;2024-02-28T03:58:55;9.60;65.40
37910;DHT22;23741;49.446;8.754;2024-02-28T04:00:57;9.60;65.40
37910;DHT22;23741;49.446;8.754;2024-02-28T04:02:59;9.60;65.40
37910;DHT22;23741;49.446;8.754;2024-02-28T04:05:01;9.60;65.40
37910;DHT22;23741;49.446;8.754;2024-02-28T04:07:03;9.60;65.50
37910;DHT22;23741;49.446;8.754;2024-02-28T04:09:05;9.50;65.40
37910;DHT22;23741;49.446;8.754;2024-02-28T04:11:07;9.50;65.50
37910;DHT22;23741;49.446;8.754;2024-02-28T04:13:09;9.50;65.60
37910;DHT22;23741;49.446;8.754;2024-02-28T04:15:11;9.50;65.40
37910;DHT22;23741;49.446;8.754;2024-02-28T04:17:16;9.50;65.00
37910;DHT22;23741;49.446;8.754;2024-02-28T04:19:18;9.60;64.90
37910;DHT22;23741;49.446;8.754;2024-02-28T04:21:20;9.50;65.30
37910;DHT22;23741;49.446;8.754;2024-02-28T04:23:21;9.40;65.30
37910;DHT22;23741;49.446;8.754;2024-02-28T04:25:23;9.40;65.10
37910;DHT22;23741;49.446;8.754;2024-02-28T04:27:25;9.40;64.90
37910;DHT22;23741;49.446;8.754;2024-02-28T04:29:27;9.40;65.10
37910;DHT22;23741;49.446;8.754;2024-02-28T04:31:29;9.40;65.50
37910;DHT22;23741;49.446;8.754;2024-02-28T04:33:30;9.30;65.70
37910;DHT22;23741;49.446;8.754;2024-02-28T04:35:32;9.30;65.60
37910;DHT22;23741;49.446;8.754;2024-02-28T04:37:34;9.40;65.50
37910;DHT22;23741;49.446;8.754;2024-02-28T04:39:38;9.30;65.80
37910;DHT22;23741;49.446;8.754;2024-02-28T04:41:39;9.30;65.80
37910;DHT22;23741;49.446;8.754;2024-02-28T04:43:41;9.30;65.80
37910;DHT22;23741;49.446;8.754;2024-02-28T04:45:43;9.30;66.20
37910;DHT22;23741;49.446;8.754;2024-02-28T04:47:45;9.30;65.90
37910;DHT22;23741;49.446;8.754;2024-02-28T04:49:46;9.30;65.90
37910;DHT22;23741;49.446;8.754;2024-02-28T04:51:48;9.30;65.70
37910;DHT22;23741;49.446;8.754;2024-02-28T04:53:50;9.30;65.80
37910;DHT22;23741;49.446;8.754;2024-02-28T04:55:52;9.20;65.70
37910;DHT22;23741;49.446;8.754;2024-02-28T04:57:54;9.20;65.60
37910;DHT22;23741;49.446;8.754;2024-02-28T04:59:55;9.20;66.00
37910;DHT22;23741;49.446;8.754;2024-02-28T05:01:57;9.20;66.10
37910;DHT22;23741;49.446;8.754;2024-02-28T05:03:59;9.20;66.30
37910;DHT22;23741;49.446;8.754;2024-02-28T05:06:01;9.20;66.10
37910;DHT22;23741;49.446;8.754;2024-02-28T05:08:03;9.10;65.70
37910;DHT22;23741;49.446;8.754;2024-02-28T05:10:05;9.20;65.40
37910;DHT22;23741;49.446;8.754;2024-02-28T05:12:07;9.20;65.80
37910;DHT22;23741;49.446;8.754;2024-02-28T05:14:09;9.20;66.20
37910;DHT22;23741;49.446;8.754;2024-02-28T05:16:13;9.20;65.80
37910;DHT22;23741;49.446;8.754;2024-02-28T05:18:14;9.10;65.60
37910;DHT22;23741;49.446;8.754;2024-02-28T05:20:16;9.20;65.50
37910;DHT22;23741;49.446;8.754;2024-02-28T05:22:18;9.10;65.70
37910;DHT22;23741;49.446;8.754;2024-02-28T05:24:20;9.10;65.80
37910;DHT22;23741;49.446;8.754;2024-02-28T05:26:22;9.10;66.00
37910;DHT22;23741;49.446;8.754;2024-02-28T05:28:23;9.00;65.80
37910;DHT22;23741;49.446;8.754;2024-02-28T05:30:25;9.10;66.10
37910;DHT22;23741;49.446;8.754;2024-02-28T05:32:27;9.10;66.00
37910;DHT22;23741;49.446;8.754;2024-02-28T05:34:29;9.00;65.60
37910;DHT22;23741;49.446;8.754;2024-02-28T05:36:31;9.00;65.60
37910;DHT22;23741;49.446;8.754;2024-02-28T05:38:33;9.00;65.80
37910;DHT22;23741;49.446;8.754;2024-02-28T05:40:35;9.00;66.10
37910;DHT22;23741;49.446;8.754;2024-02-28T05:42:36;9.00;66.10
37910;DHT22;23741;49.446;8.754;2024-02-28T05:44:38;9.00;66.30
37910;DHT22;23741;49.446;8.754;2024-02-28T05:46:40;9.00;66.30
37910;DHT22;23741;49.446;8.754;2024-02-28T05:48:42;9.00;66.10
37910;DHT22;23741;49.446;8.754;2024-02-28T05:50:44;9.00;65.80
37910;DHT22;23741;49.446;8.754;2024-02-28T05:52:48;9.00;65.90
37910;DHT22;23741;49.446;8.754;2024-02-28T05:54:50;9.00;66.20
37910;DHT22;23741;49.446;8.754;2024-02-28T05:56:51;9.00;66.30
37910;DHT22;23741;49.446;8.754;2024-02-28T05:58:54;9.00;66.30
37910;DHT22;23741;49.446;8.754;2024-02-28T06:00:56;9.00;66.10
37910;DHT22;23741;49.446;8.754;2024-02-28T06:02:58;9.00;66.30
37910;DHT22;23741;49.446;8.754;2024-02-28T06:05:00;8.90;66.40
37910;DHT22;23741;49.446;8.754;2024-02-28T06:07:04;8.90;66.40
37910;DHT22;23741;49.446;8.754;2024-02-28T06:09:06;8.90;66.30
37910;DHT22;23741;49.446;8.754;2024-02-28T06:11:11;8.90;66.10
37910;DHT22;23741;49.446;8.754;2024-02-28T06:13:13;8.90;65.70
37910;DHT22;23741;49.446;8.754;2024-02-28T06:15:18;8.90;66.10
37910;DHT22;23741;49.446;8.754;2024-02-28T06:17:20;8.90;66.50
37910;DHT22;23741;49.446;8.754;2024-02-28T06:19:22;8.80;66.40
37910;DHT22;23741;49.446;8.754;2024-02-28T06:21:24;8.80;66.30
37910;DHT22;23741;49.446;8.754;2024-02-28T06:23:26;8.80;66.10
37910;DHT22;23741;49.446;8.754;2024-02-28T06:25:30;8.80;66.10
37910;DHT22;23741;49.446;8.754;2024-02-28T06:27:35;8.80;66.70
37910;DHT22;23741;49.446;8.754;2024-02-28T06:29:37;8.80;66.80
37910;DHT22;23741;49.446;8.754;2024-02-28T06:31:39;8.80;66.80
37910;DHT22;23741;49.446;8.754;2024-02-28T06:33:41;8.80;66.50
37910;DHT22;23741;49.446;8.754;2024-02-28T06:35:42;8.80;66.20
37910;DHT22;23741;49.446;8.754;2024-02-28T06:37:44;8.80;66.00
37910;DHT22;23741;49.446;8.754;2024-02-28T06:39:51;8.90;66.40
37910;DHT22;23741;49.446;8.754;2024-02-28T06:41:53;8.70;66.80
37910;DHT22;23741;49.446;8.754;2024-02-28T06:43:55;8.70;66.90
37910;DHT22;23741;49.446;8.754;2024-02-28T06:45:56;8.70;67.00
37910;DHT22;23741;49.446;8.754;2024-02-28T06:47:58;8.70;66.60
37910;DHT22;23741;49.446;8.754;2024-02-28T06:50:00;8.70;66.60
37910;DHT22;23741;49.446;8.754;2024-02-28T06:52:02;8.70;66.30
37910;DHT22;23741;49.446;8.754;2024-02-28T06:54:04;8.70;66.60
37910;DHT22;23741;49.446;8.754;2024-02-28T06:56:06;8.70;66.40
37910;DHT22;23741;49.446;8.754;2024-02-28T06:58:07;8.70;66.90
37910;DHT22;23741;49.446;8.754;2024-02-28T07:00:10;8.70;67.30
37910;DHT22;23741;49.446;8.754;2024-02-28T07:02:13;8.70;67.30
37910;DHT22;23741;49.446;8.754;2024-02-28T07:04:14;8.80;67.10
37910;DHT22;23741;49.446;8.754;2024-02-28T07:06:16;8.70;66.70
37910;DHT22;23741;49.446;8.754;2024-02-28T07:08:18;8.70;66.50
37910;DHT22;23741;49.446;8.754;2024-02-28T07:10:20;8.70;67.10
37910;DHT22;23741;49.446;8.754;2024-02-28T07:12:21;8.70;67.30
37910;DHT22;23741;49.446;8.754;2024-02-28T07:14:23;8.70;67.50
37910;DHT22;23741;49.446;8.754;2024-02-28T07:16:25;8.80;67.40
37910;DHT22;23741;49.446;8.754;2024-02-28T07:18:27;8.80;67.40
37910;DHT22;23741;49.446;8.754;2024-02-28T07:20:31;8.80;67.30
37910;DHT22;23741;49.446;8.754;2024-02-28T07:22:33;8.80;67.50
37910;DHT22;23741;49.446;8.754;2024-02-28T07:24:35;8.80;67.20
37910;DHT22;23741;49.446;8.754;2024-02-28T07:26:36;8.80;67.60
37910;DHT22;23741;49.446;8.754;2024-02-28T07:28:39;8.80;67.60
37910;DHT22;23741;49.446;8.754;2024-02-28T07:30:40;8.80;67.80
37910;DHT22;23741;49.446;8.754;2024-02-28T07:32:42;8.90;67.70
37910;DHT22;23741;49.446;8.754;2024-02-28T07:34:44;8.90;67.60
37910;DHT22;23741;49.446;8.754;2024-02-28T07:36:46;8.90;67.50
37910;DHT22;23741;49.446;8.754;2024-02-28T07:38:48;8.90;67.30
37910;DHT22;23741;49.446;8.754;2024-02-28T07:40:50;9.00;67.40
37910;DHT22;23741;49.446;8.754;2024-02-28T07:42:51;9.00;67.60
37910;DHT22;23741;49.446;8.754;2024-02-28T07:44:53;9.00;67.50
37910;DHT22;23741;49.446;8.754;2024-02-28T07:46:58;9.00;67.50
37910;DHT22;23741;49.446;8.754;2024-02-28T07:49:00;9.10;67.70
37910;DHT22;23741;49.446;8.754;2024-02-28T07:51:06;9.10;67.50
37910;DHT22;23741;49.446;8.754;2024-02-28T07:53:08;9.10;67.40
37910;DHT22;23741;49.446;8.754;2024-02-28T07:55:10;9.20;67.70
37910;DHT22;23741;49.446;8.754;2024-02-28T07:57:12;9.20;67.80
37910;DHT22;23741;49.446;8.754;2024-02-28T07:59:14;9.20;67.70
37910;DHT22;23741;49.446;8.754;2024-02-28T08:01:16;9.30;67.90
37910;DHT22;23741;49.446;8.754;2024-02-28T08:03:18;9.30;67.90
37910;DHT22;23741;49.446;8.754;2024-02-28T08:05:20;9.40;67.90
37910;DHT22;23741;49.446;8.754;2024-02-28T08:07:22;9.30;68.20
37910;DHT22;23741;49.446;8.754;2024-02-28T08:09:24;9.40;68.00
37910;DHT22;23741;49.446;8.754;2024-02-28T08:11:26;9.40;68.20
37910;DHT22;23741;49.446;8.754;2024-02-28T08:13:27;9.50;68.30
37910;DHT22;23741;49.446;8.754;2024-02-28T08:15:30;9.50;68.60
37910;DHT22;23741;49.446;8.754;2024-02-28T08:17:32;9.60;68.30
37910;DHT22;23741;49.446;8.754;2024-02-28T08:19:34;9.60;68.20
37910;DHT22;23741;49.446;8.754;2024-02-28T08:21:37;9.70;68.30
37910;DHT22;23741;49.446;8.754;2024-02-28T08:23:38;9.70;68.00
37910;DHT22;23741;49.446;8.754;2024-02-28T08:25:40;9.80;68.20
37910;DHT22;23741;49.446;8.754;2024-02-28T08:27:42;9.80;68.20
37910;DHT22;23741;49.446;8.754;2024-02-28T08:29:44;9.80;68.10
37910;DHT22;23741;49.446;8.754;2024-02-28T08:31:46;9.90;67.90
37910;DHT22;23741;49.446;8.754;2024-02-28T08:33:48;9.90;67.80
37910;DHT22;23741;49.446;8.754;2024-02-28T08:35:50;9.90;67.60
37910;DHT22;23741;49.446;8.754;2024-02-28T08:37:53;10.00;67.70
37910;DHT22;23741;49.446;8.754;2024-02-28T08:39:55;10.00;67.70
37910;DHT22;23741;49.446;8.754;2024-02-28T08:42:00;10.10;67.60
37910;DHT22;23741;49.446;8.754;2024-02-28T08:44:02;10.10;67.40
37910;DHT22;23741;49.446;8.754;2024-02-28T08:46:04;10.10;68.10
37910;DHT22;23741;49.446;8.754;2024-02-28T08:48:06;10.10;67.20
37910;DHT22;23741;49.446;8.754;2024-02-28T08:50:09;10.10;67.30
37910;DHT22;23741;49.446;8.754;2024-02-28T08:52:10;10.10;67.40
37910;DHT22;23741;49.446;8.754;2024-02-28T08:54:12;10.20;67.60
37910;DHT22;23741;49.446;8.754;2024-02-28T08:56:14;10.30;67.80
37910;DHT22;23741;49.446;8.754;2024-02-28T08:58:16;10.30;67.80
37910;DHT22;23741;49.446;8.754;2024-02-28T09:00:18;10.30;67.70
37910;DHT22;23741;49.446;8.754;2024-02-28T09:02:20;10.40;67.90
37910;DHT22;23741;49.446;8.754;2024-02-28T09:04:22;10.40;67.70
37910;DHT22;23741;49.446;8.754;2024-02-28T09:06:23;10.40;67.80
37910;DHT22;23741;49.446;8.754;2024-02-28T09:08:25;10.50;67.90
37910;DHT22;23741;49.446;8.754;2024-02-28T09:10:27;10.50;67.80
37910;DHT22;23741;49.446;8.754;2024-02-28T09:12:30;10.60;67.70
37910;DHT22;23741;49.446;8.754;2024-02-28T09:14:32;10.60;67.80
37910;DHT22;23741;49.446;8.754;2024-02-28T09:16:34;10.60;67.70
37910;DHT22;23741;49.446;8.754;2024-02-28T09:18:35;10.70;67.50
37910;DHT22;23741;49.446;8.754;2024-02-28T09:20:37;10.80;67.60
37910;DHT22;23741;49.446;8.754;2024-02-28T09:22:39;10.90;67.50
37910;DHT22;23741;49.446;8.754;2024-02-28T09:24:41;10.90;67.40
37910;DHT22;23741;49.446;8.754;2024-02-28T09:26:43;10.90;67.30
37910;DHT22;23741;49.446;8.754;2024-02-28T09:28:45;10.90;67.20
37910;DHT22;23741;49.446;8.754;2024-02-28T09:30:46;10.90;67.30
37910;DHT22;23741;49.446;8.754;2024-02-28T09:32:54;11.00;67.40
37910;DHT22;23741;49.446;8.754;2024-02-28T09:34:56;11.00;67.00
37910;DHT22;23741;49.446;8.754;2024-02-28T09:36:58;11.20;67.80
37910;DHT22;23741;49.446;8.754;2024-02-28T09:39:00;11.10;66.80
37910;DHT22;23741;49.446;8.754;2024-02-28T09:41:02;11.10;66.70
37910;DHT22;23741;49.446;8.754;2024-02-28T09:43:04;11.20;66.60
37910;DHT22;23741;49.446;8.754;2024-02-28T09:45:07;11.20;66.40
37910;DHT22;23741;49.446;8.754;2024-02-28T09:47:09;11.20;66.40
37910;DHT22;23741;49.446;8.754;2024-02-28T09:49:13;11.30;66.20
37910;DHT22;23741;49.446;8.754;2024-02-28T09:51:15;11.30;66.30
37910;DHT22;23741;49.446;8.754;2024-02-28T09:53:18;11.40;66.30
37910;DHT22;23741;49.446;8.754;2024-02-28T09:55:20;11.40;66.20
37910;DHT22;23741;49.446;8.754;2024-02-28T09:57:23;11.40;66.20
37910;DHT22;23741;49.446;8.754;2024-02-28T09:59:30;11.50;66.10
37910;DHT22;23741;49.446;8.754;2024-02-28T10:01:51;11.60;66.20
37910;DHT22;23741;49.446;8.754;2024-02-28T10:03:55;11.60;66.10
37910;DHT22;23741;49.446;8.754;2024-02-28T10:05:59;11.70;66.10
37910;DHT22;23741;49.446;8.754;2024-02-28T10:08:06;11.70;66.10
37910;DHT22;23741;49.446;8.754;2024-02-28T10:10:08;11.80;66.00
37910;DHT22;23741;49.446;8.754;2024-02-28T10:12:10;11.90;65.80
37910;DHT22;23741;49.446;8.754;2024-02-28T10:14:14;11.90;65.70
37910;DHT22;23741;49.446;8.754;2024-02-28T10:16:18;11.90;65.50
37910;DHT22;23741;49.446;8.754;2024-02-28T10:18:20;12.00;65.30
37910;DHT22;23741;49.446;8.754;2024-02-28T10:20:22;12.00;65.10
37910;DHT22;23741;49.446;8.754;2024-02-28T10:22:24;12.00;65.10
37910;DHT22;23741;49.446;8.754;2024-02-28T10:24:26;12.10;65.00
37910;DHT22;23741;49.446;8.754;2024-02-28T10:26:28;12.10;64.90
37910;DHT22;23741;49.446;8.754;2024-02-28T10:28:35;12.20;64.90
37910;DHT22;23741;49.446;8.754;2024-02-28T10:30:41;12.10;64.70
37910;DHT22;23741;49.446;8.754;2024-02-28T10:32:49;12.20;64.60
37910;DHT22;23741;49.446;8.754;2024-02-28T10:34:51;12.30;64.50
37910;DHT22;23741;49.446;8.754;2024-02-28T10:36:54;12.40;64.50
37910;DHT22;23741;49.446;8.754;2024-02-28T10:38:56;12.30;64.50
37910;DHT22;23741;49.446;8.754;2024-02-28T10:40:59;12.30;64.30
37910;DHT22;23741;49.446;8.754;2024-02-28T10:43:01;12.40;64.30
37910;DHT22;23741;49.446;8.754;2024-02-28T10:45:04;12.40;64.20
37910;DHT22;23741;49.446;8.754;2024-02-28T10:47:21;12.50;64.30
37910;DHT22;23741;49.446;8.754;2024-02-28T10:49:24;12.60;64.40
37910;DHT22;23741;49.446;8.754;2024-02-28T10:51:26;12.50;64.20
37910;DHT22;23741;49.446;8.754;2024-02-28T10:53:37;12.60;64.10
37910;DHT22;23741;49.446;8.754;2024-02-28T10:55:43;12.60;64.10
37910;DHT22;23741;49.446;8.754;2024-02-28T10:57:47;12.60;64.00
37910;DHT22;23741;49.446;8.754;2024-02-28T10:59:53;12.70;64.10
37910;DHT22;23741;49.446;8.754;2024-02-28T11:01:56;12.70;64.10
37910;DHT22;23741;49.446;8.754;2024-02-28T11:03:58;12.70;64.10
37910;DHT22;23741;49.446;8.754;2024-02-28T11:06:00;12.80;63.80
37910;DHT22;23741;49.446;8.754;2024-02-28T11:08:01;12.80;63.70
37910;DHT22;23741;49.446;8.754;2024-02-28T11:10:06;12.80;63.60
37910;DHT22;23741;49.446;8.754;2024-02-28T11:12:13;12.80;63.60
37910;DHT22;23741;49.446;8.754;2024-02-28T11:14:25;12.90;63.60
37910;DHT22;23741;49.446;8.754;2024-02-28T11:16:33;12.90;63.60
37910;DHT22;23741;49.446;8.754;2024-02-28T11:18:35;12.90;63.50
37910;DHT22;23741;49.446;8.754;2024-02-28T11:20:36;13.00;63.30
37910;DHT22;23741;49.446;8.754;2024-02-28T11:22:39;13.00;63.40
37910;DHT22;23741;49.446;8.754;2024-02-28T11:24:41;13.00;63.40
37910;DHT22;23741;49.446;8.754;2024-02-28T11:26:45;13.10;63.30
37910;DHT22;23741;49.446;8.754;2024-02-28T11:28:50;13.10;62.80
37910;DHT22;23741;49.446;8.754;2024-02-28T11:30:52;13.10;62.50
37910;DHT22;23741;49.446;8.754;2024-02-28T11:32:54;13.10;62.50
37910;DHT22;23741;49.446;8.754;2024-02-28T11:35:00;13.10;62.60
37910;DHT22;23741;49.446;8.754;2024-02-28T11:37:02;13.20;62.70
37910;DHT22;23741;49.446;8.754;2024-02-28T11:39:05;13.10;62.90
37910;DHT22;23741;49.446;8.754;2024-02-28T11:41:08;13.20;63.20
37910;DHT22;23741;49.446;8.754;2024-02-28T11:46:38;13.30;63.10
37910;DHT22;23741;49.446;8.754;2024-02-28T11:48:39;13.40;62.70
37910;DHT22;23741;49.446;8.754;2024-02-28T11:50:42;13.40;62.70
37910;DHT22;23741;49.446;8.754;2024-02-28T11:52:44;13.50;62.80
37910;DHT22;23741;49.446;8.754;2024-02-28T11:54:46;13.50;62.70
37910;DHT22;23741;49.446;8.754;2024-02-28T11:56:47;13.60;62.80
37910;DHT22;23741;49.446;8.754;2024-02-28T11:58:50;13.70;62.90
37910;DHT22;23741;49.446;8.754;2024-02-28T12:00:52;13.70;63.00
37910;DHT22;23741;49.446;8.754;2024-02-28T12:03:04;13.80;62.90
37910;DHT22;23741;49.446;8.754;2024-02-28T12:05:06;13.90;63.10
37910;DHT22;23741;49.446;8.754;2024-02-28T12:07:08;14.00;63.20
37910;DHT22;23741;49.446;8.754;2024-02-28T12:09:11;14.00;63.00
37910;DHT22;23741;49.446;8.754;2024-02-28T12:11:23;14.20;63.20
37910;DHT22;23741;49.446;8.754;2024-02-28T12:13:25;14.20;62.70
37910;DHT22;23741;49.446;8.754;2024-02-28T12:15:29;14.30;62.70
37910;DHT22;23741;49.446;8.754;2024-02-28T12:17:30;14.40;62.80
37910;DHT22;23741;49.446;8.754;2024-02-28T12:19:34;14.50;62.50
37910;DHT22;23741;49.446;8.754;2024-02-28T12:21:36;14.60;62.40
37910;DHT22;23741;49.446;8.754;2024-02-28T12:23:38;14.60;61.90
37910;DHT22;23741;49.446;8.754;2024-02-28T12:25:40;14.80;62.00
37910;DHT22;23741;49.446;8.754;2024-02-28T12:27:41;14.80;62.00
37910;DHT22;23741;49.446;8.754;2024-02-28T12:29:43;14.90;62.70
37910;DHT22;23741;49.446;8.754;2024-02-28T12:31:45;15.00;62.10
37910;DHT22;23741;49.446;8.754;2024-02-28T12:33:47;15.10;61.70
37910;DHT22;23741;49.446;8.754;2024-02-28T12:35:49;15.20;61.50
37910;DHT22;23741;49.446;8.754;2024-02-28T12:37:51;15.20;61.50
37910;DHT22;23741;49.446;8.754;2024-02-28T12:39:52;15.30;61.60
37910;DHT22;23741;49.446;8.754;2024-02-28T12:41:54;15.40;61.50
37910;DHT22;23741;49.446;8.754;2024-02-28T12:43:56;15.50;61.20
37910;DHT22;23741;49.446;8.754;2024-02-28T12:45:58;15.60;61.30
37910;DHT22;23741;49.446;8.754;2024-02-28T12:48:00;15.60;60.90
37910;DHT22;23741;49.446;8.754;2024-02-28T12:50:03;15.70;60.70
37910;DHT22;23741;49.446;8.754;2024-02-28T12:52:05;15.70;60.00
37910;DHT22;23741;49.446;8.754;2024-02-28T12:54:08;15.80;59.70
37910;DHT22;23741;49.446;8.754;2024-02-28T12:56:10;15.80;59.50
37910;DHT22;23741;49.446;8.754;2024-02-28T12:58:12;15.90;60.00
37910;DHT22;23741;49.446;8.754;2024-02-28T13:00:14;16.00;58.90
37910;DHT22;23741;49.446;8.754;2024-02-28T13:02:16;16.00;58.80
37910;DHT22;23741;49.446;8.754;2024-02-28T13:04:19;16.00;59.10
37910;DHT22;23741;49.446;8.754;2024-02-28T13:06:21;16.10;59.00
37910;DHT22;23741;49.446;8.754;2024-02-28T13:08:23;16.10;59.20
37910;DHT22;23741;49.446;8.754;2024-02-28T13:10:25;16.10;58.70
37910;DHT22;23741;49.446;8.754;2024-02-28T13:12:27;16.20;58.00